createdAt,value
2023-05-02T00:00:27.586Z,45.45
2023-05-02T00:02:53.658Z,45.51
2023-05-02T00:05:19.541Z,45.72
2023-05-02T00:07:45.639Z,45.52
2023-05-02T00:10:11.330Z,45.67
2023-05-02T00:12:37.735Z,45.47
2023-05-02T00:15:04.182Z,45.69
2023-05-02T00:17:29.907Z,45.20
2023-05-02T00:19:55.842Z,45.31
2023-05-02T00:22:21.504Z,45.70
2023-05-02T00:24:47.174Z,45.68
2023-05-02T00:27:13.487Z,45.71
2023-05-02T00:29:40.224Z,45.72
2023-05-02T00:32:06.224Z,45.53
2023-05-02T00:34:32.045Z,45.78
2023-05-02T00:36:58.248Z,45.75
2023-05-02T00:39:24.024Z,45.48
2023-05-02T00:41:55.954Z,45.78
2023-05-02T00:44:21.809Z,45.55
2023-05-02T00:46:47.509Z,45.53
2023-05-02T00:49:13.229Z,45.62
2023-05-02T00:51:39.410Z,45.47
2023-05-02T00:54:05.258Z,45.80
2023-05-02T00:56:30.989Z,45.53
2023-05-02T00:58:57.258Z,45.74
2023-05-02T01:01:48.555Z,45.69
2023-05-02T01:07:05.767Z,45.51
2023-05-02T01:10:11.221Z,45.51
2023-05-02T01:12:42.519Z,45.65
2023-05-02T01:15:11.682Z,45.70
2023-05-02T01:17:38.277Z,45.39
2023-05-02T01:20:07.968Z,45.70
2023-05-02T01:22:34.041Z,45.62
2023-05-02T01:25:39.497Z,45.76
2023-05-02T01:28:16.715Z,45.39
2023-05-02T01:30:44.217Z,45.72
2023-05-02T01:33:11.515Z,45.56
2023-05-02T01:35:37.343Z,45.69
2023-05-02T01:38:05.317Z,45.51
2023-05-02T01:40:32.828Z,45.80
2023-05-02T01:42:58.812Z,45.55
2023-05-02T01:45:24.727Z,45.65
2023-05-02T01:47:50.812Z,45.78
2023-05-02T01:50:20.153Z,45.74
2023-05-02T01:52:46.759Z,45.64
2023-05-02T01:55:15.133Z,45.40
2023-05-02T01:57:41.495Z,45.81
2023-05-02T02:00:08.291Z,45.65
2023-05-02T02:02:34.609Z,45.53
2023-05-02T02:05:00.673Z,45.54
2023-05-02T02:07:26.382Z,45.80
2023-05-02T02:09:52.200Z,45.57
2023-05-02T02:12:25.608Z,45.78
2023-05-02T02:14:56.953Z,45.58
2023-05-02T02:17:27.329Z,45.87
2023-05-02T02:19:55.398Z,45.72
2023-05-02T02:22:23.330Z,45.50
2023-05-02T02:24:49.474Z,45.77
2023-05-02T02:27:15.248Z,45.82
2023-05-02T02:29:40.881Z,45.45
2023-05-02T02:32:06.532Z,45.59
2023-05-02T02:34:32.221Z,45.59
2023-05-02T02:37:03.357Z,45.50
2023-05-02T02:39:49.734Z,45.70
2023-05-02T02:42:22.459Z,45.50
2023-05-02T02:47:50.108Z,45.60
2023-05-02T02:50:26.762Z,45.75
2023-05-02T02:53:09.216Z,45.71
2023-05-02T02:55:44.647Z,45.64
2023-05-02T02:58:41.871Z,45.53
2023-05-02T03:01:11.563Z,45.85
2023-05-02T03:03:39.135Z,45.78
2023-05-02T03:06:05.117Z,45.51
2023-05-02T03:08:39.369Z,45.52
2023-05-02T03:11:05.038Z,45.81
2023-05-02T03:13:30.770Z,45.60
2023-05-02T03:16:36.402Z,45.79
2023-05-02T03:19:03.031Z,45.79
2023-05-02T03:21:30.775Z,45.60
2023-05-02T03:23:59.854Z,45.75
2023-05-02T03:26:26.086Z,45.70
2023-05-02T03:28:52.053Z,45.54
2023-05-02T03:31:17.741Z,45.86
2023-05-02T03:33:43.621Z,45.58
2023-05-02T03:36:10.232Z,45.79
2023-05-02T03:38:35.931Z,45.65
2023-05-02T03:41:02.324Z,45.64
2023-05-02T03:43:28.030Z,45.54
2023-05-02T03:45:53.681Z,45.62
2023-05-02T03:48:19.433Z,45.75
2023-05-02T03:50:45.096Z,45.78
2023-05-02T03:53:10.750Z,45.77
2023-05-02T03:55:40.112Z,45.61
2023-05-02T03:58:06.535Z,45.72
2023-05-02T04:00:32.177Z,45.56
2023-05-02T04:03:00.421Z,45.47
2023-05-02T04:05:26.073Z,45.78
2023-05-02T04:07:51.714Z,45.49
2023-05-02T04:10:17.457Z,45.75
2023-05-02T04:12:43.496Z,45.58
2023-05-02T04:15:09.959Z,45.70
2023-05-02T04:17:35.782Z,45.68
2023-05-02T04:20:05.063Z,45.47
2023-05-02T04:22:31.341Z,45.63
2023-05-02T04:24:57.012Z,45.73
2023-05-02T04:27:22.716Z,45.81
2023-05-02T04:29:49.332Z,45.62
2023-05-02T04:32:15.198Z,46.07
2023-05-02T04:34:41.063Z,45.83
2023-05-02T04:37:06.722Z,45.51
2023-05-02T04:39:32.816Z,45.55
2023-05-02T04:41:58.598Z,45.63
2023-05-02T04:44:24.326Z,45.80
2023-05-02T04:46:49.983Z,45.72
2023-05-02T04:49:15.782Z,45.65
2023-05-02T04:51:41.462Z,45.78
2023-05-02T04:54:07.128Z,45.55
2023-05-02T04:56:32.791Z,45.78
2023-05-02T04:58:58.427Z,45.62
2023-05-02T05:01:26.946Z,45.93
2023-05-02T05:03:53.719Z,45.60
2023-05-02T05:06:19.524Z,45.85
2023-05-02T05:08:45.629Z,45.58
2023-05-02T05:11:11.954Z,45.56
2023-05-02T05:13:37.923Z,45.83
2023-05-02T05:16:03.706Z,45.53
2023-05-02T05:18:30.086Z,45.70
2023-05-02T05:20:55.738Z,45.61
2023-05-02T05:23:21.390Z,45.56
2023-05-02T05:25:47.290Z,45.82
2023-05-02T05:28:13.037Z,45.73
2023-05-02T05:30:39.022Z,45.85
2023-05-02T05:33:04.743Z,45.70
2023-05-02T05:35:31.957Z,45.81
2023-05-02T05:37:57.666Z,45.73
2023-05-02T05:40:23.309Z,45.52
2023-05-02T05:42:48.961Z,45.98
2023-05-02T05:45:16.303Z,45.60
2023-05-02T05:47:42.193Z,45.81
2023-05-02T05:50:07.968Z,45.53
2023-05-02T05:52:33.877Z,45.88
2023-05-02T05:54:59.654Z,45.79
2023-05-02T05:57:25.368Z,45.80
2023-05-02T05:59:51.246Z,45.73
2023-05-02T06:02:17.220Z,45.66
2023-05-02T06:04:42.896Z,45.71
2023-05-02T06:07:08.611Z,45.85
2023-05-02T06:09:34.246Z,45.78
2023-05-02T06:12:01.387Z,46.27
2023-05-02T06:14:27.071Z,48.00
2023-05-02T06:16:52.810Z,46.21
2023-05-02T06:19:18.469Z,46.40
2023-05-02T06:21:44.135Z,46.09
2023-05-02T06:24:09.811Z,45.97
2023-05-02T06:26:35.595Z,46.24
2023-05-02T06:29:01.765Z,46.70
2023-05-02T06:31:27.446Z,46.07
2023-05-02T06:33:53.127Z,46.22
2023-05-02T06:36:18.771Z,46.16
2023-05-02T06:38:44.461Z,46.37
2023-05-02T06:41:15.323Z,46.09
2023-05-02T06:43:42.999Z,46.12
2023-05-02T06:46:08.655Z,45.96
2023-05-02T06:48:35.492Z,45.91
2023-05-02T06:51:03.317Z,45.82
2023-05-02T06:53:31.144Z,46.42
2023-05-02T06:55:58.534Z,46.01
2023-05-02T06:58:24.192Z,45.88
2023-05-02T07:00:50.001Z,46.55
2023-05-02T07:03:15.909Z,45.93
2023-05-02T07:05:41.668Z,46.21
2023-05-02T07:08:08.257Z,46.13
2023-05-02T07:10:33.920Z,46.13
2023-05-02T07:12:59.565Z,46.92
2023-05-02T07:15:25.291Z,49.62
2023-05-02T07:17:51.050Z,49.62
2023-05-02T07:20:16.833Z,49.81
2023-05-02T07:22:42.506Z,50.18
2023-05-02T07:25:08.576Z,49.46
2023-05-02T07:27:34.262Z,48.46
2023-05-02T07:30:00.660Z,47.84
2023-05-02T07:32:27.167Z,47.86
2023-05-02T07:34:54.195Z,47.83
2023-05-02T07:37:20.373Z,47.60
2023-05-02T07:39:46.048Z,47.91
2023-05-02T07:42:11.711Z,47.69
2023-05-02T07:44:37.660Z,47.63
2023-05-02T07:47:03.314Z,47.60
2023-05-02T07:49:29.021Z,47.82
2023-05-02T07:51:55.397Z,47.53
2023-05-02T07:54:21.645Z,48.84
2023-05-02T07:56:48.139Z,47.60
2023-05-02T07:59:14.127Z,48.47
2023-05-02T08:01:40.833Z,48.25
2023-05-02T08:04:07.030Z,48.04
2023-05-02T08:06:32.933Z,48.01
2023-05-02T08:08:58.910Z,48.71
2023-05-02T08:11:24.757Z,48.24
2023-05-02T08:13:51.245Z,48.24
2023-05-02T08:16:17.711Z,47.87
2023-05-02T08:18:43.438Z,47.31
2023-05-02T08:21:09.321Z,47.18
2023-05-02T08:23:35.071Z,47.75
2023-05-02T08:26:00.748Z,47.84
2023-05-02T08:28:26.410Z,46.86
2023-05-02T08:30:52.066Z,46.69
2023-05-02T08:33:17.829Z,47.22
2023-05-02T08:35:43.589Z,47.56
2023-05-02T08:38:09.427Z,47.28
2023-05-02T08:40:42.465Z,46.65
2023-05-02T08:43:10.833Z,46.05
2023-05-02T08:45:40.071Z,46.05
2023-05-02T08:48:07.502Z,46.32
2023-05-02T08:50:43.727Z,47.25
2023-05-02T08:53:10.711Z,46.53
2023-05-02T08:55:39.740Z,46.60
2023-05-02T08:58:06.177Z,46.34
2023-05-02T09:00:39.969Z,46.68
2023-05-02T09:03:30.908Z,46.57
2023-05-02T09:06:06.895Z,46.58
2023-05-02T09:08:33.668Z,45.88
2023-05-02T09:11:02.371Z,46.33
2023-05-02T09:13:36.786Z,45.70
2023-05-02T09:16:04.843Z,45.98
2023-05-02T09:18:33.374Z,46.39
2023-05-02T09:21:00.355Z,46.31
2023-05-02T09:23:41.539Z,46.10
2023-05-02T09:26:12.179Z,45.67
2023-05-02T09:28:43.060Z,45.71
2023-05-02T09:31:10.752Z,46.04
2023-05-02T09:33:37.983Z,45.35
2023-05-02T09:36:04.859Z,45.49
2023-05-02T09:38:30.526Z,45.40
2023-05-02T09:40:56.227Z,44.78
2023-05-02T09:43:21.956Z,44.77
2023-05-02T09:46:08.414Z,45.09
2023-05-02T09:51:26.419Z,44.95
2023-05-02T09:53:52.090Z,44.93
2023-05-02T09:56:18.446Z,44.65
2023-05-02T09:58:44.523Z,43.68
2023-05-02T10:01:18.330Z,44.13
2023-05-02T10:03:47.897Z,44.06
2023-05-02T10:06:15.033Z,45.00
2023-05-02T10:08:41.352Z,44.02
2023-05-02T10:11:08.026Z,44.15
2023-05-02T10:13:34.127Z,44.14
2023-05-02T10:16:02.033Z,43.66
2023-05-02T10:18:47.481Z,43.77
2023-05-02T10:21:17.934Z,45.17
2023-05-02T10:23:43.615Z,44.05
2023-05-02T10:26:13.785Z,44.07
2023-05-02T10:28:40.565Z,45.67
2023-05-02T10:31:09.152Z,44.36
2023-05-02T10:33:34.827Z,44.23
2023-05-02T10:36:00.705Z,43.49
2023-05-02T10:38:26.432Z,43.55
2023-05-02T10:40:57.978Z,43.40
2023-05-02T10:43:25.502Z,43.38
2023-05-02T10:45:52.099Z,43.41
2023-05-02T10:48:19.661Z,42.76
2023-05-02T10:50:47.130Z,42.95
2023-05-02T10:53:31.219Z,42.59
2023-05-02T10:56:18.054Z,43.25
2023-05-02T10:58:45.351Z,42.96
2023-05-02T11:01:33.415Z,43.06
2023-05-02T11:03:59.731Z,42.96
2023-05-02T11:06:26.840Z,42.96
2023-05-02T11:08:53.333Z,43.32
2023-05-02T11:11:41.199Z,42.87
2023-05-02T11:14:07.477Z,42.87
2023-05-02T11:24:51.438Z,42.68
2023-05-02T11:30:08.623Z,40.30
2023-05-02T11:35:26.815Z,41.98
2023-05-02T11:37:54.250Z,41.52
2023-05-02T11:40:20.022Z,41.68
2023-05-02T11:42:46.343Z,42.44
2023-05-02T11:45:12.113Z,40.84
2023-05-02T11:47:37.993Z,40.75
2023-05-02T11:50:04.873Z,40.65
2023-05-02T11:52:36.252Z,40.07
2023-05-02T11:55:02.337Z,40.93
2023-05-02T11:57:28.225Z,42.15
2023-05-02T11:59:56.240Z,41.35
2023-05-02T12:02:38.604Z,41.10
2023-05-02T12:05:05.980Z,41.21
2023-05-02T12:07:49.902Z,41.06
2023-05-02T12:10:15.566Z,41.06
2023-05-02T12:12:43.400Z,41.39
2023-05-02T12:15:10.897Z,41.85
2023-05-02T12:17:41.095Z,41.41
2023-05-02T12:20:08.046Z,41.89
2023-05-02T12:22:33.995Z,41.20
2023-05-02T12:25:00.315Z,41.08
2023-05-02T12:27:26.539Z,41.62
2023-05-02T12:29:52.797Z,41.45
2023-05-02T12:32:35.101Z,42.13
2023-05-02T12:35:02.258Z,41.15
2023-05-02T12:37:27.985Z,41.09
2023-05-02T12:39:54.754Z,39.91
2023-05-02T12:42:22.142Z,39.63
2023-05-02T12:44:51.418Z,39.91
2023-05-02T12:47:18.526Z,39.87
2023-05-02T12:49:52.592Z,40.27
2023-05-02T12:52:19.267Z,40.58
2023-05-02T12:54:46.449Z,41.17
2023-05-02T12:57:28.001Z,41.10
2023-05-02T12:59:53.805Z,40.70
2023-05-02T13:02:20.413Z,40.96
2023-05-02T13:04:46.418Z,40.55
2023-05-02T13:07:12.129Z,40.77
2023-05-02T13:09:37.928Z,40.72
2023-05-02T13:12:03.929Z,40.69
2023-05-02T13:14:29.614Z,40.62
2023-05-02T13:16:55.555Z,41.46
2023-05-02T13:19:21.627Z,41.22
2023-05-02T13:21:47.367Z,41.46
2023-05-02T13:24:14.118Z,40.25
2023-05-02T13:26:40.762Z,40.59
2023-05-02T13:29:08.820Z,41.76
2023-05-02T13:31:34.687Z,41.87
2023-05-02T13:34:00.491Z,42.01
2023-05-02T13:36:26.249Z,40.79
2023-05-02T13:38:51.882Z,40.99
2023-05-02T13:41:18.353Z,40.94
2023-05-02T13:43:44.061Z,41.34
2023-05-02T13:46:09.754Z,40.74
2023-05-02T13:48:36.621Z,41.07
2023-05-02T13:51:02.542Z,40.14
2023-05-02T13:53:28.574Z,40.39
2023-05-02T13:55:54.266Z,40.87
2023-05-02T13:58:20.379Z,40.93
2023-05-02T14:00:46.527Z,39.43
2023-05-02T14:03:12.764Z,39.69
2023-05-02T14:05:42.802Z,39.89
2023-05-02T14:08:09.736Z,40.06
2023-05-02T14:10:37.067Z,42.95
2023-05-02T14:13:03.450Z,41.18
2023-05-02T14:15:29.155Z,40.74
2023-05-02T14:17:54.873Z,43.01
2023-05-02T14:20:22.631Z,42.19
2023-05-02T14:22:48.577Z,43.34
2023-05-02T14:25:14.977Z,43.68
2023-05-02T14:27:41.593Z,43.81
2023-05-02T14:30:07.879Z,41.87
2023-05-02T14:32:34.074Z,43.57
2023-05-02T14:35:00.787Z,41.28
2023-05-02T14:37:26.645Z,43.35
2023-05-02T14:39:55.261Z,43.54
2023-05-02T14:42:22.556Z,43.65
2023-05-02T14:44:48.211Z,40.57
2023-05-02T14:47:13.907Z,44.68
2023-05-02T14:49:39.718Z,44.72
2023-05-02T14:52:05.360Z,45.39
2023-05-02T14:54:31.094Z,46.27
2023-05-02T14:56:58.539Z,44.99
2023-05-02T14:59:27.789Z,48.06
2023-05-02T15:01:53.481Z,45.79
2023-05-02T15:04:19.190Z,43.98
2023-05-02T15:06:45.509Z,45.39
2023-05-02T15:09:11.975Z,44.29
2023-05-02T15:11:37.619Z,45.31
2023-05-02T15:14:03.262Z,45.05
2023-05-02T15:16:29.004Z,44.63
2023-05-02T15:18:54.871Z,44.63
2023-05-02T15:21:21.030Z,42.55
2023-05-02T15:23:46.703Z,41.68
2023-05-02T15:26:12.801Z,40.34
2023-05-02T15:28:38.532Z,42.16
2023-05-02T15:31:04.420Z,41.52
2023-05-02T15:33:30.131Z,40.70
2023-05-02T15:35:57.395Z,40.89
2023-05-02T15:38:24.024Z,41.44
2023-05-02T15:40:54.629Z,40.92
2023-05-02T15:43:20.715Z,41.20
2023-05-02T15:45:52.039Z,41.94
2023-05-02T15:48:17.935Z,44.42
2023-05-02T15:50:43.643Z,44.21
2023-05-02T15:53:09.652Z,41.30
2023-05-02T15:55:35.644Z,43.15
2023-05-02T15:58:01.291Z,43.67
2023-05-02T16:00:26.934Z,44.42
2023-05-02T16:02:52.617Z,44.06
2023-05-02T16:05:18.315Z,44.11
2023-05-02T16:07:43.964Z,44.20
2023-05-02T16:10:10.126Z,44.04
2023-05-02T16:12:35.766Z,44.44
2023-05-02T16:15:03.656Z,44.23
2023-05-02T16:17:29.703Z,44.44
2023-05-02T16:19:55.427Z,44.53
2023-05-02T16:22:21.113Z,44.35
2023-05-02T16:24:46.766Z,44.24
2023-05-02T16:27:12.421Z,44.30
2023-05-02T16:29:38.091Z,44.37
2023-05-02T16:32:03.926Z,44.40
2023-05-02T16:34:32.111Z,44.51
2023-05-02T16:36:57.748Z,44.57
2023-05-02T16:39:23.428Z,44.42
2023-05-02T16:41:49.145Z,44.62
2023-05-02T16:44:14.823Z,44.62
2023-05-02T16:46:40.686Z,44.73
2023-05-02T16:49:06.930Z,44.74
2023-05-02T16:51:32.571Z,44.54
2023-05-02T16:53:58.207Z,44.83
2023-05-02T16:56:23.936Z,44.63
2023-05-02T16:58:49.605Z,44.62
2023-05-02T17:01:15.296Z,44.93
2023-05-02T17:03:41.027Z,44.70
2023-05-02T17:06:06.862Z,44.76
2023-05-02T17:08:32.610Z,44.72
2023-05-02T17:10:58.270Z,44.61
2023-05-02T17:13:24.006Z,44.95
2023-05-02T17:15:50.450Z,44.76
2023-05-02T17:18:16.185Z,44.81
2023-05-02T17:20:41.909Z,44.84
2023-05-02T17:23:08.251Z,44.71
2023-05-02T17:25:33.892Z,44.76
2023-05-02T17:27:59.560Z,45.05
2023-05-02T17:30:25.348Z,44.64
2023-05-02T17:32:51.249Z,44.81
2023-05-02T17:35:17.136Z,45.12
2023-05-02T17:37:43.140Z,44.93
2023-05-02T17:40:09.105Z,45.15
2023-05-02T17:42:34.741Z,45.12
2023-05-02T17:45:00.394Z,45.00
2023-05-02T17:47:26.090Z,45.04
2023-05-02T17:49:52.926Z,45.00
2023-05-02T17:52:18.616Z,45.05
2023-05-02T17:54:44.889Z,45.13
2023-05-02T17:57:11.486Z,44.85
2023-05-02T17:59:38.813Z,44.68
2023-05-02T18:02:05.627Z,44.82
2023-05-02T18:04:33.537Z,45.13
2023-05-02T18:06:59.959Z,44.92
2023-05-02T18:09:25.671Z,44.77
2023-05-02T18:11:51.505Z,44.93
2023-05-02T18:14:18.439Z,45.16
2023-05-02T18:16:47.764Z,45.06
2023-05-02T18:19:15.187Z,44.96
2023-05-02T18:21:41.181Z,44.96
2023-05-02T18:24:07.033Z,45.03
2023-05-02T18:26:32.711Z,44.84
2023-05-02T18:28:58.367Z,44.94
2023-05-02T18:31:24.030Z,44.93
2023-05-02T18:33:50.751Z,45.15
2023-05-02T18:36:24.863Z,45.18
2023-05-02T18:38:50.868Z,45.01
2023-05-02T18:41:17.503Z,44.98
2023-05-02T18:43:43.159Z,45.11
2023-05-02T18:46:08.852Z,44.90
2023-05-02T18:48:36.115Z,45.13
2023-05-02T18:51:01.932Z,44.79
2023-05-02T18:53:27.677Z,44.98
2023-05-02T18:55:53.644Z,45.17
2023-05-02T18:58:20.560Z,45.29
2023-05-02T19:00:46.659Z,45.01
2023-05-02T19:03:12.568Z,45.03
2023-05-02T19:05:39.217Z,45.04
2023-05-02T19:08:05.494Z,45.03
2023-05-02T19:10:31.524Z,44.80
2023-05-02T19:12:57.442Z,45.26
2023-05-02T19:15:25.837Z,44.91
2023-05-02T19:17:52.600Z,45.07
2023-05-02T19:20:18.501Z,44.89
2023-05-02T19:22:45.619Z,44.92
2023-05-02T19:25:12.181Z,45.17
2023-05-02T19:27:39.745Z,44.97
2023-05-02T19:30:08.484Z,44.87
2023-05-02T19:32:34.903Z,44.92
2023-05-02T19:35:01.251Z,44.83
2023-05-02T19:37:27.098Z,45.02
2023-05-02T19:39:52.836Z,44.96
2023-05-02T19:42:18.702Z,45.02
2023-05-02T19:44:44.355Z,45.08
2023-05-02T19:47:09.989Z,44.93
2023-05-02T19:49:35.638Z,45.19
2023-05-02T19:52:01.312Z,44.98
2023-05-02T19:54:26.964Z,45.15
2023-05-02T19:56:52.612Z,45.21
2023-05-02T19:59:18.323Z,45.34
2023-05-02T20:01:45.585Z,45.27
2023-05-02T20:04:11.472Z,45.08
2023-05-02T20:06:37.147Z,45.08
2023-05-02T20:09:02.842Z,45.22
2023-05-02T20:11:29.996Z,45.01
2023-05-02T20:13:55.651Z,45.00
2023-05-02T20:16:21.339Z,45.28
2023-05-02T20:18:47.067Z,45.03
2023-05-02T20:21:12.711Z,44.84
2023-05-02T20:23:42.381Z,45.26
2023-05-02T20:26:08.772Z,45.28
2023-05-02T20:28:34.559Z,45.12
2023-05-02T20:31:01.700Z,45.00
2023-05-02T20:33:37.068Z,44.86
2023-05-02T20:36:10.237Z,45.12
2023-05-02T20:38:41.286Z,45.04
2023-05-02T20:41:10.742Z,45.09
2023-05-02T20:43:38.935Z,45.18
2023-05-02T20:46:09.021Z,45.10
2023-05-02T20:48:34.726Z,45.01
2023-05-02T20:51:00.520Z,45.00
2023-05-02T20:53:26.180Z,45.13
2023-05-02T20:55:51.813Z,45.03
2023-05-02T20:58:17.459Z,44.99
2023-05-02T21:00:43.092Z,44.93
2023-05-02T21:03:08.861Z,45.05
2023-05-02T21:05:34.569Z,45.11
2023-05-02T21:08:00.595Z,45.08
2023-05-02T21:10:29.058Z,45.00
2023-05-02T21:12:54.656Z,45.28
2023-05-02T21:15:20.631Z,44.89
2023-05-02T21:17:46.300Z,45.14
2023-05-02T21:20:12.180Z,45.00
2023-05-02T21:22:37.814Z,45.34
2023-05-02T21:25:03.682Z,45.10
2023-05-02T21:27:29.361Z,45.18
2023-05-02T21:29:55.004Z,45.39
2023-05-02T21:32:20.696Z,45.05
2023-05-02T21:34:46.352Z,45.04
2023-05-02T21:37:12.004Z,45.03
2023-05-02T21:39:37.879Z,45.29
2023-05-02T21:42:04.184Z,45.26
2023-05-02T21:44:29.894Z,44.98
2023-05-02T21:46:55.583Z,45.00
2023-05-02T21:49:21.259Z,45.20
2023-05-02T21:51:46.896Z,44.87
2023-05-02T21:54:12.543Z,45.15
2023-05-02T21:56:38.185Z,45.08
2023-05-02T21:59:03.845Z,45.22
2023-05-02T22:01:29.588Z,45.11
2023-05-02T22:03:57.160Z,45.10
2023-05-02T22:06:22.826Z,45.23
2023-05-02T22:08:48.504Z,45.06
2023-05-02T22:11:14.666Z,44.93
2023-05-02T22:13:40.429Z,44.98
2023-05-02T22:16:06.980Z,45.08
2023-05-02T22:18:32.717Z,44.88
2023-05-02T22:20:58.719Z,45.14
2023-05-02T22:23:24.549Z,45.21
2023-05-02T22:25:50.203Z,45.03
2023-05-02T22:28:15.862Z,45.28
2023-05-02T22:30:42.171Z,44.96
2023-05-02T22:33:08.514Z,44.98
2023-05-02T22:35:35.790Z,44.96
2023-05-02T22:38:01.586Z,45.11
2023-05-02T22:40:28.474Z,45.06
2023-05-02T22:42:54.110Z,45.14
2023-05-02T22:45:19.744Z,45.02
2023-05-02T22:47:45.431Z,44.98
2023-05-02T22:50:12.230Z,45.01
2023-05-02T22:52:38.150Z,45.00
2023-05-02T22:55:05.132Z,45.13
2023-05-02T22:57:30.782Z,45.05
2023-05-02T22:59:56.521Z,44.89
2023-05-02T23:02:22.399Z,45.17
2023-05-02T23:04:48.087Z,45.02
2023-05-02T23:07:13.739Z,44.93
2023-05-02T23:09:39.408Z,45.25
2023-05-02T23:12:05.103Z,44.85
2023-05-02T23:14:30.774Z,45.05
2023-05-02T23:16:56.621Z,45.05
2023-05-02T23:19:22.318Z,44.98
2023-05-02T23:21:47.950Z,44.91
2023-05-02T23:24:13.649Z,45.13
2023-05-02T23:26:39.949Z,44.94
2023-05-02T23:29:05.777Z,44.89
2023-05-02T23:31:31.908Z,44.94
2023-05-02T23:33:57.934Z,45.31
2023-05-02T23:36:23.636Z,45.25
2023-05-02T23:38:49.299Z,44.81
2023-05-02T23:41:14.951Z,45.03
2023-05-02T23:43:40.652Z,44.90
2023-05-02T23:46:06.356Z,45.08
2023-05-02T23:48:32.008Z,44.95
2023-05-02T23:50:57.711Z,45.24
2023-05-02T23:53:23.413Z,45.31
2023-05-02T23:55:49.062Z,44.96
2023-05-02T23:58:14.746Z,45.04
